Time;durP1;ratioP1;P1;durP2;ratioP2;P2;SDS_P1;SDS_P2;PMS_P1;PMS_P2;Temp;Humidity;BMP_temperature;BMP_pressure;BME280_temperature;BME280_humidity;BME280_pressure;Samples;Min_cycle;Max_cycle;Signal;HPM_P1;HPM_P2
2024/03/15 00:01:33;;;;;;;;;;;;;;;12.17;50.79;100310.09;4963000;27;98082;-72
2024/03/15 00:03:59;;;;;;;;;;;;;;;12.17;50.71;100312.81;4970823;27;98282;-72
2024/03/15 00:06:26;;;;;;;;;;;;;;;12.15;50.72;100309.59;4947795;28;100818;-71
2024/03/15 00:08:53;;;;;;;;;;;;;;;12.13;50.93;100301.75;4961348;28;98057;-76
2024/03/15 00:11:19;;;;;;;;;;;;;;;12.11;51.00;100301.25;4963271;27;97933;-71
2024/03/15 00:13:46;;;;;;;;;;;;;;;12.11;50.80;100292.34;4953840;27;99400;-76
2024/03/15 00:16:14;;;;;;;;;;;;;;;12.11;50.81;100292.34;4953165;27;98414;-71
2024/03/15 00:18:40;;;;;;;;;;;;;;;12.09;50.83;100289.91;4979308;27;99680;-76
2024/03/15 00:21:07;;;;;;;;;;;;;;;12.09;50.81;100286.38;4966588;27;98180;-71
2024/03/15 00:23:34;;;;;;;;;;;;;;;12.07;50.93;100281.28;4966959;27;98257;-71
2024/03/15 00:26:00;;;;;;;;;;;;;;;12.07;50.80;100285.88;4966716;27;98386;-71
2024/03/15 00:28:27;;;;;;;;;;;;;;;12.04;50.84;100285.34;4965853;27;98050;-76
2024/03/15 00:30:53;;;;;;;;;;;;;;;12.05;50.72;100283.44;5002949;27;99202;-71
2024/03/15 00:33:19;;;;;;;;;;;;;;;12.03;50.77;100280.22;4978250;27;98112;-76
2024/03/15 00:35:46;;;;;;;;;;;;;;;12.03;50.75;100282.94;4964520;27;99782;-76
2024/03/15 00:38:12;;;;;;;;;;;;;;;12.02;50.88;100275.88;4978826;27;98409;-72
2024/03/15 00:40:38;;;;;;;;;;;;;;;11.99;50.96;100271.88;5002332;27;103064;-76
2024/03/15 00:43:05;;;;;;;;;;;;;;;11.98;50.93;100262.13;4964828;27;98196;-76
2024/03/15 00:45:32;;;;;;;;;;;;;;;11.97;50.88;100263.22;4967446;27;98005;-71
2024/03/15 00:48:01;;;;;;;;;;;;;;;11.96;50.89;100261.63;4963892;27;98138;-71
2024/03/15 00:50:29;;;;;;;;;;;;;;;11.96;50.92;100266.22;4980028;27;98800;-72
2024/03/15 00:52:57;;;;;;;;;;;;;;;11.95;50.96;100267.31;4998620;27;98422;-71
2024/03/15 00:55:27;;;;;;;;;;;;;;;11.93;50.94;100255.97;4980276;27;98221;-72
2024/03/15 00:57:54;;;;;;;;;;;;;;;11.92;50.73;100246.28;4965571;27;98457;-76
2024/03/15 01:00:21;;;;;;;;;;;;;;;11.92;50.88;100257.88;4977565;27;100019;-72
2024/03/15 01:02:47;;;;;;;;;;;;;;;11.92;50.87;100257.06;4963870;27;98111;-71
2024/03/15 01:05:14;;;;;;;;;;;;;;;11.90;50.90;100253.84;4981563;27;98213;-76
2024/03/15 01:07:40;;;;;;;;;;;;;;;11.89;50.84;100250.34;4962245;27;98238;-76
2024/03/15 01:10:07;;;;;;;;;;;;;;;11.89;51.00;100250.34;4962539;27;98039;-76
2024/03/15 01:12:34;;;;;;;;;;;;;;;11.88;51.00;100245.22;4964024;27;99068;-72
2024/03/15 01:15:00;;;;;;;;;;;;;;;11.87;50.87;100246.28;4962977;27;99596;-77
2024/03/15 01:17:30;;;;;;;;;;;;;;;11.86;50.93;100237.38;4982885;27;99041;-76
2024/03/15 01:19:57;;;;;;;;;;;;;;;11.85;50.83;100235.78;4980378;27;98586;-71
2024/03/15 01:22:24;;;;;;;;;;;;;;;11.85;50.81;100234.97;4961560;27;98051;-72
2024/03/15 01:24:50;;;;;;;;;;;;;;;11.83;50.90;100227.16;4977197;27;98734;-71
2024/03/15 01:27:16;;;;;;;;;;;;;;;11.83;50.86;100220.91;4962079;27;98446;-71
2024/03/15 01:29:44;;;;;;;;;;;;;;;11.83;50.92;100215.50;4963450;27;98061;-76
2024/03/15 01:32:11;;;;;;;;;;;;;;;11.82;51.02;100225.50;4983230;27;98034;-72
2024/03/15 01:34:37;;;;;;;;;;;;;;;11.81;51.01;100221.19;4964487;27;99103;-71
2024/03/15 01:37:03;;;;;;;;;;;;;;;11.80;50.98;100225.78;4999512;27;99643;-77
2024/03/15 01:39:29;;;;;;;;;;;;;;;11.79;50.92;100226.09;4979894;27;98050;-76
2024/03/15 01:41:56;;;;;;;;;;;;;;;11.79;50.81;100229.59;4975829;27;98300;-76
2024/03/15 01:44:22;;;;;;;;;;;;;;;11.79;50.87;100220.69;4982454;27;100413;-77
2024/03/15 01:46:49;;;;;;;;;;;;;;;11.78;50.89;100221.75;4980349;27;98094;-72
2024/03/15 01:49:15;;;;;;;;;;;;;;;11.77;50.81;100220.94;4977813;27;98454;-72
2024/03/15 01:51:41;;;;;;;;;;;;;;;11.76;50.98;100213.94;4961840;27;98174;-72
2024/03/15 01:54:10;;;;;;;;;;;;;;;11.76;50.89;100213.94;4982658;27;99207;-72
2024/03/15 01:56:37;;;;;;;;;;;;;;;11.74;50.95;100215.28;4978278;27;98384;-72
2024/03/15 01:59:04;;;;;;;;;;;;;;;11.75;50.96;100214.19;4965816;27;98252;-76
2024/03/15 02:01:31;;;;;;;;;;;;;;;11.74;50.84;100216.09;4964533;27;97862;-72
2024/03/15 02:03:58;;;;;;;;;;;;;;;11.74;50.89;100212.59;4968188;27;100392;-77
2024/03/15 02:06:25;;;;;;;;;;;;;;;11.73;51.09;100211.00;4962082;27;98069;-71
2024/03/15 02:08:54;;;;;;;;;;;;;;;11.72;50.87;100210.19;4968315;27;98405;-71
2024/03/15 02:11:21;;;;;;;;;;;;;;;11.72;50.99;100201.28;4978513;27;98362;-76
2024/03/15 02:13:48;;;;;;;;;;;;;;;11.71;51.04;100208.59;4978787;27;101296;-76
2024/03/15 02:16:15;;;;;;;;;;;;;;;11.71;51.11;100205.03;4978691;27;98539;-71
2024/03/15 02:18:43;;;;;;;;;;;;;;;11.69;50.99;100209.94;4957754;27;99068;-72
2024/03/15 02:21:09;;;;;;;;;;;;;;;11.70;51.01;100200.75;4973402;27;98472;-71
2024/03/15 02:23:36;;;;;;;;;;;;;;;11.68;51.04;100192.13;4963094;27;99267;-76
2024/03/15 02:26:03;;;;;;;;;;;;;;;11.67;50.83;100199.44;4966729;27;99613;-76
2024/03/15 02:28:30;;;;;;;;;;;;;;;11.67;50.87;100204.84;5000722;27;98159;-76
2024/03/15 02:30:57;;;;;;;;;;;;;;;11.67;50.92;100204.84;4972787;27;98063;-71
2024/03/15 02:33:24;;;;;;;;;;;;;;;11.66;51.00;100202.41;4945728;27;98220;-76
2024/03/15 02:35:51;;;;;;;;;;;;;;;11.65;50.93;100198.09;4966183;27;98054;-71
2024/03/15 02:38:18;;;;;;;;;;;;;;;11.64;50.97;100197.28;4995329;27;98396;-71
2024/03/15 02:40:44;;;;;;;;;;;;;;;11.63;51.00;100195.69;4964007;27;98384;-71
2024/03/15 02:43:10;;;;;;;;;;;;;;;11.65;50.90;100200.78;4981731;27;104908;-76
2024/03/15 02:45:37;;;;;;;;;;;;;;;11.64;51.20;100193.78;4964545;27;99996;-75
2024/03/15 02:48:03;;;;;;;;;;;;;;;11.62;50.92;100188.66;4951458;27;98314;-71
2024/03/15 02:50:30;;;;;;;;;;;;;;;11.63;51.05;100194.84;4967783;27;99552;-76
2024/03/15 02:52:56;;;;;;;;;;;;;;;11.62;50.92;100183.25;4998423;27;98203;-76
2024/03/15 02:55:22;;;;;;;;;;;;;;;11.62;50.94;100185.16;4962046;27;98000;-71
2024/03/15 02:57:48;;;;;;;;;;;;;;;11.61;50.95;100184.34;4952355;27;98100;-71
2024/03/15 03:00:15;;;;;;;;;;;;;;;11.61;51.12;100189.75;4981146;27;98389;-76
2024/03/15 03:02:41;;;;;;;;;;;;;;;11.60;50.92;100190.84;4962202;28;98556;-71
2024/03/15 03:05:08;;;;;;;;;;;;;;;11.60;51.00;100190.03;4969799;27;99433;-76
2024/03/15 03:07:35;;;;;;;;;;;;;;;11.60;51.08;100196.22;4988136;27;97983;-76
2024/03/15 03:10:01;;;;;;;;;;;;;;;11.60;51.20;100185.44;4964162;27;98204;-74
2024/03/15 03:12:29;;;;;;;;;;;;;;;11.58;50.96;100190.28;4947628;27;98284;-71
2024/03/15 03:14:56;;;;;;;;;;;;;;;11.58;50.97;100193.00;4970008;27;98065;-71
2024/03/15 03:17:22;;;;;;;;;;;;;;;11.58;51.08;100189.50;4986013;27;98084;-71
2024/03/15 03:19:49;;;;;;;;;;;;;;;11.56;51.02;100189.78;4972170;27;100669;-71
2024/03/15 03:22:17;;;;;;;;;;;;;;;11.56;50.84;100189.78;4995396;27;100266;-71
2024/03/15 03:24:43;;;;;;;;;;;;;;;11.54;50.96;100190.03;4965364;27;99803;-71
2024/03/15 03:27:09;;;;;;;;;;;;;;;11.54;51.03;100192.75;4961817;27;98176;-71
2024/03/15 03:29:36;;;;;;;;;;;;;;;11.54;51.17;100191.94;4975488;27;98180;-76
2024/03/15 03:32:02;;;;;;;;;;;;;;;11.54;50.92;100189.25;4966253;27;98542;-76
2024/03/15 03:34:29;;;;;;;;;;;;;;;11.53;51.12;100195.75;4975928;27;97959;-71
2024/03/15 03:36:55;;;;;;;;;;;;;;;11.52;51.09;100196.84;4938009;28;98233;-71
2024/03/15 03:39:21;;;;;;;;;;;;;;;11.51;51.06;100190.63;4944887;28;98318;-71
2024/03/15 03:41:48;;;;;;;;;;;;;;;11.51;51.07;100187.94;4944653;27;98326;-71
2024/03/15 03:44:16;;;;;;;;;;;;;;;11.49;51.04;100198.19;4962652;27;98323;-71
2024/03/15 03:46:43;;;;;;;;;;;;;;;11.48;50.93;100193.06;4980742;27;97965;-76
2024/03/15 03:49:09;;;;;;;;;;;;;;;11.48;51.10;100182.28;4977842;27;100113;-76
2024/03/15 03:51:35;;;;;;;;;;;;;;;11.47;51.08;100183.34;4978792;27;98319;-71
2024/03/15 03:54:02;;;;;;;;;;;;;;;11.47;51.00;100186.03;4960899;27;97902;-71
2024/03/15 03:56:29;;;;;;;;;;;;;;;11.46;51.14;100176.34;4961137;27;98678;-76
2024/03/15 03:58:55;;;;;;;;;;;;;;;11.45;51.25;100185.53;4964815;27;98167;-71
2024/03/15 04:01:21;;;;;;;;;;;;;;;11.44;51.02;100178.53;4979057;27;98109;-76
2024/03/15 04:03:48;;;;;;;;;;;;;;;11.43;51.03;100176.91;4953846;27;98477;-71
2024/03/15 04:06:15;;;;;;;;;;;;;;;11.42;51.20;100180.69;4985119;27;98333;-76
2024/03/15 04:08:42;;;;;;;;;;;;;;;11.41;51.08;100177.19;4964291;27;98172;-76
2024/03/15 04:11:09;;;;;;;;;;;;;;;11.41;51.17;100184.47;4977425;27;99591;-71
2024/03/15 04:13:36;;;;;;;;;;;;;;;11.39;50.95;100176.66;4970058;27;99647;-75
2024/03/15 04:16:04;;;;;;;;;;;;;;;11.38;51.12;100179.63;4976526;27;98860;-76
2024/03/15 04:18:31;;;;;;;;;;;;;;;11.38;51.16;100179.63;4982847;27;98227;-71
2024/03/15 04:20:59;;;;;;;;;;;;;;;11.36;51.01;100176.41;4999182;27;97851;-70
2024/03/15 04:23:26;;;;;;;;;;;;;;;11.35;51.01;100169.41;4951389;27;98234;-76
2024/03/15 04:25:54;;;;;;;;;;;;;;;11.33;51.07;100171.56;4947258;27;98165;-76
2024/03/15 04:28:21;;;;;;;;;;;;;;;11.31;50.98;100169.94;4948341;27;98186;-71
2024/03/15 04:30:47;;;;;;;;;;;;;;;11.30;51.10;100168.34;4947918;27;98425;-71
2024/03/15 04:33:14;;;;;;;;;;;;;;;11.28;51.09;100165.13;4964639;27;98152;-77
2024/03/15 04:35:41;;;;;;;;;;;;;;;11.27;51.00;100170.78;4950555;27;98499;-71
2024/03/15 04:38:08;;;;;;;;;;;;;;;11.26;51.15;100166.47;4941294;28;98061;-76
2024/03/15 04:40:35;;;;;;;;;;;;;;;11.26;50.96;100163.78;4960068;27;98123;-71
2024/03/15 04:43:02;;;;;;;;;;;;;;;11.24;50.98;100155.19;4950155;27;98128;-71
2024/03/15 04:45:28;;;;;;;;;;;;;;;11.23;50.89;100156.25;4956535;27;98092;-71
2024/03/15 04:47:55;;;;;;;;;;;;;;;11.21;51.26;100153.84;4949871;27;99550;-76
2024/03/15 04:50:21;;;;;;;;;;;;;;;11.20;51.16;100160.31;4929548;28;98380;-77
2024/03/15 04:52:48;;;;;;;;;;;;;;;11.19;51.41;100160.59;4962518;27;98093;-71
2024/03/15 04:55:14;;;;;;;;;;;;;;;11.17;50.99;100155.47;4971049;27;98008;-71
2024/03/15 04:57:41;;;;;;;;;;;;;;;11.17;51.26;100160.06;4986377;27;98151;-76
2024/03/15 05:00:09;;;;;;;;;;;;;;;11.15;51.05;100152.22;4963191;27;100130;-71
2024/03/15 05:02:36;;;;;;;;;;;;;;;11.14;51.16;100160.63;4969606;27;97864;-72
2024/03/15 05:05:07;;;;;;;;;;;;;;;11.13;51.28;100159.00;4968756;27;97966;-72
2024/03/15 05:07:33;;;;;;;;;;;;;;;11.12;50.89;100157.38;4952442;27;98859;-71
2024/03/15 05:10:00;;;;;;;;;;;;;;;11.10;50.92;100159.56;4983265;27;100047;-77
2024/03/15 05:12:26;;;;;;;;;;;;;;;11.08;51.02;100151.72;4986708;27;97972;-72
2024/03/15 05:14:53;;;;;;;;;;;;;;;11.08;51.20;100157.13;4984670;27;99340;-76
2024/03/15 05:17:19;;;;;;;;;;;;;;;11.06;51.03;100151.22;4964272;27;98347;-76
2024/03/15 05:19:45;;;;;;;;;;;;;;;11.06;51.23;100162.00;4947906;27;99235;-76
2024/03/15 05:22:12;;;;;;;;;;;;;;;11.06;51.44;100156.63;4940680;28;98265;-72
2024/03/15 05:24:38;;;;;;;;;;;;;;;11.06;50.96;100145.81;4962382;27;99373;-77
2024/03/15 05:27:05;;;;;;;;;;;;;;;11.04;51.05;100148.81;4962094;27;98114;-76
2024/03/15 05:29:31;;;;;;;;;;;;;;;11.06;51.22;100152.03;4959967;27;98257;-76
2024/03/15 05:31:58;;;;;;;;;;;;;;;11.06;51.25;100153.91;4962995;28;98208;-71
2024/03/15 05:34:26;;;;;;;;;;;;;;;11.06;50.91;100154.72;4942465;28;98096;-76
2024/03/15 05:36:52;;;;;;;;;;;;;;;11.07;51.18;100152.81;4956781;27;98270;-76
2024/03/15 05:39:19;;;;;;;;;;;;;;;11.09;51.14;100149.88;4978216;27;98398;-70
2024/03/15 05:41:46;;;;;;;;;;;;;;;11.10;51.04;100149.56;4960422;27;98302;-76
2024/03/15 05:44:13;;;;;;;;;;;;;;;11.12;51.19;100151.97;4945679;27;98964;-76
2024/03/15 05:46:40;;;;;;;;;;;;;;;11.13;51.10;100157.13;4960218;27;98353;-70
2024/03/15 05:49:08;;;;;;;;;;;;;;;11.15;51.01;100157.63;4944695;27;98516;-73
2024/03/15 05:51:35;;;;;;;;;;;;;;;11.18;51.16;100154.38;4955829;27;98057;-71
2024/03/15 05:54:01;;;;;;;;;;;;;;;11.20;50.96;100148.69;4948593;28;98027;-76
2024/03/15 05:56:28;;;;;;;;;;;;;;;11.22;50.84;100151.94;4956994;27;98898;-76
2024/03/15 05:58:54;;;;;;;;;;;;;;;11.26;50.99;100159.19;4964990;27;98153;-76
2024/03/15 06:01:21;;;;;;;;;;;;;;;11.28;50.94;100156.22;4966186;27;98449;-77
2024/03/15 06:03:48;;;;;;;;;;;;;;;11.31;50.75;100150.25;4963461;27;98175;-71
2024/03/15 06:06:15;;;;;;;;;;;;;;;11.37;50.91;100159.13;4978908;27;98349;-71
2024/03/15 06:08:42;;;;;;;;;;;;;;;11.42;51.06;100161.78;4953471;27;99494;-76
2024/03/15 06:11:10;;;;;;;;;;;;;;;11.45;50.86;100156.66;4949440;27;98289;-71
2024/03/15 06:13:36;;;;;;;;;;;;;;;11.51;50.67;100158.25;4965255;27;98239;-77
2024/03/15 06:16:04;;;;;;;;;;;;;;;11.58;50.63;100154.41;4966012;27;98071;-72
2024/03/15 06:18:33;;;;;;;;;;;;;;;11.65;50.65;100150.28;4971301;27;98400;-77
2024/03/15 06:21:00;;;;;;;;;;;;;;;11.72;50.72;100149.97;4970172;27;100158;-77
2024/03/15 06:23:28;;;;;;;;;;;;;;;11.80;50.59;100157.47;5006188;27;97935;-77
2024/03/15 06:25:54;;;;;;;;;;;;;;;11.87;50.45;100155.28;4982887;27;98153;-77
2024/03/15 06:28:25;;;;;;;;;;;;;;;11.96;50.48;100155.47;4969300;27;100072;-77
2024/03/15 06:30:53;;;;;;;;;;;;;;;12.04;50.40;100150.25;4964806;27;98225;-72
2024/03/15 06:33:21;;;;;;;;;;;;;;;12.13;50.24;100158.56;4985188;27;98149;-77
2024/03/15 06:35:54;;;;;;;;;;;;;;;12.22;50.38;100151.47;4967585;27;99260;-77
2024/03/15 06:38:30;;;;;;;;;;;;;;;12.29;50.33;100151.09;4987494;27;98093;-72
2024/03/15 06:41:07;;;;;;;;;;;;;;;12.39;50.20;100151.00;4967334;27;100235;-72
2024/03/15 06:43:41;;;;;;;;;;;;;;;12.49;50.22;100150.88;4991848;27;98137;-77
2024/03/15 06:46:09;;;;;;;;;;;;;;;12.60;50.26;100148.06;4968857;27;98471;-77
2024/03/15 06:48:47;;;;;;;;;;;;;;;12.69;50.13;100151.75;5003178;27;97961;-72
2024/03/15 06:54:15;;;;;;;;;;;;;;;12.92;50.25;100142.00;4931691;28;99134;-77
2024/03/15 06:56:42;;;;;;;;;;;;;;;13.02;50.04;100144.56;4966387;27;100184;-78
2024/03/15 06:59:11;;;;;;;;;;;;;;;13.09;50.21;100145.03;4984076;27;99337;-72
2024/03/15 07:01:38;;;;;;;;;;;;;;;13.17;49.90;100149.78;4985080;27;100247;-77
2024/03/15 07:04:07;;;;;;;;;;;;;;;13.25;50.10;100149.16;4996302;27;98336;-72
2024/03/15 07:06:35;;;;;;;;;;;;;;;13.37;50.15;100153.34;4974181;27;97955;-77
2024/03/15 07:09:04;;;;;;;;;;;;;;;13.47;50.14;100153.97;4983910;27;97878;-72
2024/03/15 07:11:34;;;;;;;;;;;;;;;13.59;49.71;100150.81;4980454;27;98600;-72
2024/03/15 07:14:05;;;;;;;;;;;;;;;13.74;49.92;100147.84;4984457;27;98483;-72
2024/03/15 07:16:33;;;;;;;;;;;;;;;13.95;49.47;100148.34;4967623;27;99580;-72
2024/03/15 07:19:00;;;;;;;;;;;;;;;14.12;49.72;100152.38;4979226;27;98471;-72
2024/03/15 07:21:27;;;;;;;;;;;;;;;14.27;49.26;100154.81;4962950;27;98111;-72
2024/03/15 07:23:53;;;;;;;;;;;;;;;14.40;49.45;100148.59;4961300;27;98369;-77
2024/03/15 07:26:19;;;;;;;;;;;;;;;14.58;49.54;100157.78;4978419;27;98375;-72
2024/03/15 07:28:46;;;;;;;;;;;;;;;14.83;49.04;100153.75;4978901;27;98501;-72
2024/03/15 07:31:13;;;;;;;;;;;;;;;15.11;48.77;100159.16;4979563;27;98878;-72
2024/03/15 07:33:39;;;;;;;;;;;;;;;15.33;48.98;100156.50;4982204;27;98195;-73
2024/03/15 07:36:07;;;;;;;;;;;;;;;15.56;48.84;100151.06;4959410;27;98014;-77
2024/03/15 07:38:37;;;;;;;;;;;;;;;15.81;48.63;100150.50;4967207;27;102622;-73
2024/03/15 07:41:04;;;;;;;;;;;;;;;16.12;48.38;100150.53;4985002;27;97977;-73
2024/03/15 07:43:32;;;;;;;;;;;;;;;16.43;48.28;100141.56;4981087;27;98497;-72
2024/03/15 07:45:58;;;;;;;;;;;;;;;16.68;48.30;100149.00;4966355;27;99207;-77
2024/03/15 07:48:27;;;;;;;;;;;;;;;16.87;48.23;100147.97;4985668;27;98321;-77
2024/03/15 07:50:53;;;;;;;;;;;;;;;17.07;48.18;100150.06;4968531;27;98095;-78
2024/03/15 07:53:20;;;;;;;;;;;;;;;17.33;48.15;100143.84;4966174;27;97942;-72
2024/03/15 07:55:46;;;;;;;;;;;;;;;17.67;47.88;100148.47;4969853;27;98121;-77
2024/03/15 07:58:13;;;;;;;;;;;;;;;17.95;47.76;100148.94;4963376;27;99997;-72
2024/03/15 08:00:43;;;;;;;;;;;;;;;18.18;47.53;100146.81;4985633;27;98298;-77
2024/03/15 08:03:10;;;;;;;;;;;;;;;18.40;47.79;100143.06;4967233;27;98214;-77
2024/03/15 08:05:38;;;;;;;;;;;;;;;18.64;47.87;100147.91;4972198;27;98375;-73
2024/03/15 08:08:05;;;;;;;;;;;;;;;18.82;47.61;100146.75;4966677;27;98165;-71
2024/03/15 08:10:32;;;;;;;;;;;;;;;19.28;47.33;100139.50;4965531;27;98318;-71
2024/03/15 08:12:58;;;;;;;;;;;;;;;19.43;47.50;100138.09;4985038;27;97876;-72
2024/03/15 08:15:32;;;;;;;;;;;;;;;19.61;47.34;100144.22;4968996;27;98347;-76
2024/03/15 08:17:58;;;;;;;;;;;;;;;19.90;47.24;100142.53;4984459;27;98078;-76
2024/03/15 08:20:26;;;;;;;;;;;;;;;20.06;47.26;100141.53;4975850;27;98618;-77
2024/03/15 08:22:55;;;;;;;;;;;;;;;20.50;46.93;100144.59;4979022;27;99320;-72
2024/03/15 08:25:23;;;;;;;;;;;;;;;21.30;46.17;100145.91;4958435;27;98317;-73
2024/03/15 08:27:49;;;;;;;;;;;;;;;22.54;45.15;100144.94;4982925;27;98366;-76
2024/03/15 08:30:17;;;;;;;;;;;;;;;23.68;44.25;100143.94;4972013;27;98081;-72
2024/03/15 08:32:43;;;;;;;;;;;;;;;24.56;43.88;100151.41;4989873;27;98193;-77
2024/03/15 08:35:13;;;;;;;;;;;;;;;25.11;44.02;100154.63;4971983;27;98290;-72
2024/03/15 08:37:42;;;;;;;;;;;;;;;25.04;44.71;100152.56;4967199;27;99459;-77
2024/03/15 08:40:12;;;;;;;;;;;;;;;25.11;44.77;100149.09;4961884;27;98681;-76
2024/03/15 08:42:40;;;;;;;;;;;;;;;25.21;45.10;100148.47;4992654;27;98061;-76
2024/03/15 08:45:08;;;;;;;;;;;;;;;24.80;45.60;100148.28;4984297;27;98136;-72
2024/03/15 08:47:39;;;;;;;;;;;;;;;24.43;46.28;100142.56;4985018;27;97991;-76
2024/03/15 08:50:11;;;;;;;;;;;;;;;24.43;46.28;100148.06;4962035;27;98473;-76
2024/03/15 08:52:41;;;;;;;;;;;;;;;24.66;45.92;100142.53;4978871;27;98194;-76
2024/03/15 08:55:13;;;;;;;;;;;;;;;24.61;46.34;100138.13;4981921;27;98291;-76
2024/03/15 08:57:39;;;;;;;;;;;;;;;24.29;46.66;100136.78;4971914;27;98080;-72
2024/03/15 09:00:12;;;;;;;;;;;;;;;24.11;47.16;100134.50;4968709;27;98388;-76
2024/03/15 09:02:38;;;;;;;;;;;;;;;24.03;46.87;100134.75;4964846;27;99284;-72
2024/03/15 09:05:08;;;;;;;;;;;;;;;24.15;46.81;100134.59;4969783;27;98097;-72
2024/03/15 09:07:38;;;;;;;;;;;;;;;24.38;46.49;100135.41;4982395;27;98133;-76
2024/03/15 09:10:13;;;;;;;;;;;;;;;24.45;46.59;100129.22;4984765;27;98341;-72
2024/03/15 09:12:40;;;;;;;;;;;;;;;24.14;47.26;100130.25;4961346;27;98090;-72
2024/03/15 09:15:12;;;;;;;;;;;;;;;24.20;47.32;100134.25;4971325;27;98367;-76
2024/03/15 09:17:42;;;;;;;;;;;;;;;24.22;46.96;100137.47;4970862;27;98477;-72
2024/03/15 09:20:19;;;;;;;;;;;;;;;24.07;47.64;100133.66;4985286;27;98389;-72
2024/03/15 09:22:50;;;;;;;;;;;;;;;23.89;47.77;100138.81;4965383;27;100268;-76
2024/03/15 09:25:20;;;;;;;;;;;;;;;23.91;47.66;100130.22;5000259;27;98247;-73
2024/03/15 09:27:48;;;;;;;;;;;;;;;24.02;47.70;100131.22;4976766;27;98365;-73
2024/03/15 09:30:18;;;;;;;;;;;;;;;24.24;47.15;100135.91;4970291;27;98474;-76
2024/03/15 09:32:45;;;;;;;;;;;;;;;24.31;47.26;100142.72;4971979;27;98293;-72
2024/03/15 09:35:14;;;;;;;;;;;;;;;24.30;47.54;100147.44;4980635;27;98244;-73
2024/03/15 09:37:50;;;;;;;;;;;;;;;24.51;47.14;100147.00;4964568;27;98268;-71
2024/03/15 09:40:19;;;;;;;;;;;;;;;24.78;46.95;100131.28;4968251;27;98194;-75
2024/03/15 09:42:48;;;;;;;;;;;;;;;24.94;46.93;100125.63;4967612;27;98163;-76
2024/03/15 09:45:18;;;;;;;;;;;;;;;24.98;47.24;100123.69;4986539;27;98611;-72
2024/03/15 09:47:49;;;;;;;;;;;;;;;25.02;47.28;100123.75;4996606;27;98279;-71
2024/03/15 09:50:16;;;;;;;;;;;;;;;25.26;46.97;100125.28;4996579;27;99509;-72
2024/03/15 09:52:43;;;;;;;;;;;;;;;25.50;46.90;100124.00;4989620;27;98000;-73
2024/03/15 09:55:16;;;;;;;;;;;;;;;25.63;47.06;100123.38;4995730;27;98385;-77
2024/03/15 09:57:46;;;;;;;;;;;;;;;25.69;47.21;100119.09;4984762;27;100111;-77
2024/03/15 10:00:22;;;;;;;;;;;;;;;25.64;47.22;100121.41;4984932;27;99515;-71
2024/03/15 10:02:49;;;;;;;;;;;;;;;25.52;47.67;100114.19;4985116;27;97872;-76
2024/03/15 10:05:16;;;;;;;;;;;;;;;25.43;47.57;100119.19;4988522;27;98761;-72
2024/03/15 10:07:42;;;;;;;;;;;;;;;25.43;47.63;100120.00;4967896;27;98433;-72
2024/03/15 10:10:11;;;;;;;;;;;;;;;25.48;47.66;100116.09;4997723;27;98173;-76
2024/03/15 10:12:44;;;;;;;;;;;;;;;25.46;47.63;100118.44;4978806;27;98059;-72
2024/03/15 10:15:11;;;;;;;;;;;;;;;25.38;47.76;100119.53;4988377;27;98144;-75
2024/03/15 10:17:39;;;;;;;;;;;;;;;25.36;47.75;100121.88;4968924;27;98066;-71
2024/03/15 10:20:14;;;;;;;;;;;;;;;25.27;48.03;100122.16;4981613;27;98394;-73
2024/03/15 10:22:41;;;;;;;;;;;;;;;25.18;47.99;100116.13;4997156;27;99550;-71
2024/03/15 10:25:18;;;;;;;;;;;;;;;25.09;48.07;100121.91;4985199;27;98362;-72
2024/03/15 10:27:44;;;;;;;;;;;;;;;25.11;47.94;100118.78;4969437;27;98410;-76
2024/03/15 10:30:15;;;;;;;;;;;;;;;25.27;48.02;100118.59;4960759;27;98153;-72
2024/03/15 10:32:45;;;;;;;;;;;;;;;25.58;47.42;100122.91;4967216;27;98126;-72
2024/03/15 10:35:12;;;;;;;;;;;;;;;25.59;47.67;100114.25;4958952;27;98360;-76
2024/03/15 10:37:40;;;;;;;;;;;;;;;25.87;47.58;100113.00;4984364;27;98252;-72
2024/03/15 10:40:09;;;;;;;;;;;;;;;26.14;47.37;100106.16;4975323;27;97980;-72
2024/03/15 10:42:35;;;;;;;;;;;;;;;26.27;47.20;100108.63;4977860;27;100385;-76
2024/03/15 10:45:01;;;;;;;;;;;;;;;26.46;47.12;100099.34;4984668;27;98251;-76
2024/03/15 10:47:28;;;;;;;;;;;;;;;26.29;47.77;100100.75;4975616;27;98701;-72
2024/03/15 10:49:54;;;;;;;;;;;;;;;26.23;47.64;100100.31;4963009;27;98044;-72
2024/03/15 10:52:22;;;;;;;;;;;;;;;26.20;47.54;100101.06;4976645;27;98608;-72
2024/03/15 10:54:50;;;;;;;;;;;;;;;26.27;47.67;100105.88;4976229;27;98694;-76
2024/03/15 10:57:17;;;;;;;;;;;;;;;26.53;47.25;100094.66;4977804;27;98069;-76
2024/03/15 10:59:44;;;;;;;;;;;;;;;26.98;46.81;100100.84;4978775;27;99442;-72
2024/03/15 11:02:11;;;;;;;;;;;;;;;27.15;46.84;100099.38;4960867;27;98196;-76
2024/03/15 11:04:38;;;;;;;;;;;;;;;27.50;46.42;100103.47;4964505;27;100146;-76
2024/03/15 11:07:05;;;;;;;;;;;;;;;27.40;46.73;100108.56;4975721;27;99634;-76
2024/03/15 11:09:35;;;;;;;;;;;;;;;27.47;46.85;100105.06;4965195;27;98083;-76
2024/03/15 11:12:04;;;;;;;;;;;;;;;27.65;46.97;100105.88;4970763;27;98060;-72
2024/03/15 11:14:34;;;;;;;;;;;;;;;28.18;46.35;100107.19;4969311;27;98521;-75
2024/03/15 11:17:05;;;;;;;;;;;;;;;28.52;46.05;100098.47;4983465;27;98478;-76
2024/03/15 11:19:44;;;;;;;;;;;;;;;29.16;45.36;100095.56;4972920;27;100259;-76
2024/03/15 11:22:22;;;;;;;;;;;;;;;29.74;45.29;100099.63;4969920;27;98036;-71
2024/03/15 11:25:07;;;;;;;;;;;;;;;30.40;44.92;100093.22;4987797;27;98250;-71
2024/03/15 11:27:56;;;;;;;;;;;;;;;31.03;44.53;100088.19;4985199;27;98387;-77
2024/03/15 11:30:27;;;;;;;;;;;;;;;31.54;44.31;100094.72;4985862;27;99582;-71
2024/03/15 11:32:54;;;;;;;;;;;;;;;32.03;44.24;100086.09;5002861;27;98118;-76
2024/03/15 11:35:23;;;;;;;;;;;;;;;32.42;44.41;100079.88;4988266;27;101006;-77
2024/03/15 11:37:55;;;;;;;;;;;;;;;32.72;44.50;100072.53;5002138;27;98432;-76
2024/03/15 11:40:25;;;;;;;;;;;;;;;32.91;44.24;100077.34;4988948;27;98077;-76
2024/03/15 11:42:52;;;;;;;;;;;;;;;33.29;44.40;100071.41;4981882;27;98188;-76
2024/03/15 11:45:19;;;;;;;;;;;;;;;33.51;44.61;100070.94;4981141;27;98100;-71
2024/03/15 11:47:46;;;;;;;;;;;;;;;33.68;44.25;100070.56;4986908;27;98027;-73
2024/03/15 11:50:15;;;;;;;;;;;;;;;33.93;44.22;100071.97;4982666;27;98607;-77
2024/03/15 11:52:44;;;;;;;;;;;;;;;34.09;44.30;100062.81;4986473;27;97953;-73
2024/03/15 11:55:16;;;;;;;;;;;;;;;34.13;44.42;100058.69;4968295;27;98312;-71
2024/03/15 11:57:43;;;;;;;;;;;;;;;34.19;44.69;100050.56;5001472;27;98178;-74
2024/03/15 12:00:23;;;;;;;;;;;;;;;34.17;44.81;100047.44;4972288;27;98728;-76
2024/03/15 12:02:50;;;;;;;;;;;;;;;33.89;45.48;100046.88;4974928;27;98070;-76
2024/03/15 12:05:16;;;;;;;;;;;;;;;33.39;45.71;100045.25;4981248;27;98186;-76
2024/03/15 12:07:43;;;;;;;;;;;;;;;32.98;46.56;100040.94;4990047;27;98318;-79
2024/03/15 12:10:14;;;;;;;;;;;;;;;32.82;46.58;100038.06;4984437;27;98241;-77
2024/03/15 12:12:47;;;;;;;;;;;;;;;32.90;45.89;100036.72;4998803;27;97947;-72
2024/03/15 12:15:27;;;;;;;;;;;;;;;32.90;45.73;100038.72;4988569;27;98379;-72
2024/03/15 12:18:00;;;;;;;;;;;;;;;33.05;45.64;100031.63;4966483;27;98315;-76
2024/03/15 12:20:28;;;;;;;;;;;;;;;33.11;45.88;100031.91;4970113;27;98452;-72
2024/03/15 12:22:54;;;;;;;;;;;;;;;32.87;46.33;100031.97;4983559;27;97980;-76
2024/03/15 12:25:23;;;;;;;;;;;;;;;32.90;46.38;100035.94;4982995;27;98312;-71
2024/03/15 12:27:50;;;;;;;;;;;;;;;32.81;45.99;100042.06;4977854;27;98720;-76
2024/03/15 12:30:17;;;;;;;;;;;;;;;32.79;46.02;100038.13;4952413;28;98246;-75
2024/03/15 12:32:43;;;;;;;;;;;;;;;32.83;46.41;100036.06;4961868;27;98163;-76
2024/03/15 12:35:09;;;;;;;;;;;;;;;32.72;46.46;100034.28;4980019;27;98211;-71
2024/03/15 12:37:36;;;;;;;;;;;;;;;32.69;46.52;100032.31;4988900;27;98481;-71
2024/03/15 12:40:06;;;;;;;;;;;;;;;32.66;46.24;100027.63;4986482;27;100379;-71
2024/03/15 12:42:33;;;;;;;;;;;;;;;32.59;46.68;100024.97;5000691;27;98209;-75